sensor_id;sensor_type;location;lat;lon;timestamp;P1;durP1;ratioP1;P2;durP2;ratioP2
54807;SDS011;40708;50.364;7.550;2023-10-19T00:00:54;18.57;;;15.87;;
54807;SDS011;40708;50.364;7.550;2023-10-19T00:03:21;16.37;;;14.67;;
54807;SDS011;40708;50.364;7.550;2023-10-19T00:05:48;17.93;;;15.90;;
54807;SDS011;40708;50.364;7.550;2023-10-19T00:08:14;17.47;;;15.53;;
54807;SDS011;40708;50.364;7.550;2023-10-19T00:10:43;17.90;;;16.03;;
54807;SDS011;40708;50.364;7.550;2023-10-19T00:13:10;16.60;;;14.90;;
54807;SDS011;40708;50.364;7.550;2023-10-19T00:15:40;15.73;;;14.23;;
54807;SDS011;40708;50.364;7.550;2023-10-19T00:18:17;18.37;;;16.47;;
54807;SDS011;40708;50.364;7.550;2023-10-19T00:20:44;16.47;;;14.90;;
54807;SDS011;40708;50.364;7.550;2023-10-19T00:23:11;17.70;;;15.10;;
54807;SDS011;40708;50.364;7.550;2023-10-19T00:25:39;14.77;;;13.27;;
54807;SDS011;40708;50.364;7.550;2023-10-19T00:28:07;14.10;;;12.80;;
54807;SDS011;40708;50.364;7.550;2023-10-19T00:30:33;13.80;;;12.50;;
54807;SDS011;40708;50.364;7.550;2023-10-19T00:33:01;15.47;;;13.87;;
54807;SDS011;40708;50.364;7.550;2023-10-19T00:35:34;15.07;;;13.60;;
54807;SDS011;40708;50.364;7.550;2023-10-19T00:38:00;15.73;;;13.97;;
54807;SDS011;40708;50.364;7.550;2023-10-19T00:40:53;14.53;;;13.13;;
54807;SDS011;40708;50.364;7.550;2023-10-19T00:43:27;14.23;;;12.83;;
54807;SDS011;40708;50.364;7.550;2023-10-19T00:46:03;16.33;;;14.73;;
54807;SDS011;40708;50.364;7.550;2023-10-19T00:48:36;13.90;;;12.50;;
54807;SDS011;40708;50.364;7.550;2023-10-19T00:51:04;14.57;;;13.17;;
54807;SDS011;40708;50.364;7.550;2023-10-19T00:53:48;16.23;;;14.63;;
54807;SDS011;40708;50.364;7.550;2023-10-19T00:56:14;13.83;;;12.53;;
54807;SDS011;40708;50.364;7.550;2023-10-19T00:58:43;13.20;;;12.00;;
54807;SDS011;40708;50.364;7.550;2023-10-19T01:01:13;13.57;;;12.27;;
54807;SDS011;40708;50.364;7.550;2023-10-19T01:03:40;14.83;;;13.20;;
54807;SDS011;40708;50.364;7.550;2023-10-19T01:06:05;13.43;;;12.03;;
54807;SDS011;40708;50.364;7.550;2023-10-19T01:08:35;13.77;;;12.37;;
54807;SDS011;40708;50.364;7.550;2023-10-19T01:11:07;13.67;;;12.20;;
54807;SDS011;40708;50.364;7.550;2023-10-19T01:13:37;12.10;;;10.90;;
54807;SDS011;40708;50.364;7.550;2023-10-19T01:16:03;13.10;;;11.80;;
54807;SDS011;40708;50.364;7.550;2023-10-19T01:18:29;12.00;;;10.90;;
54807;SDS011;40708;50.364;7.550;2023-10-19T01:20:57;12.87;;;11.67;;
54807;SDS011;40708;50.364;7.550;2023-10-19T01:23:27;12.90;;;11.50;;
54807;SDS011;40708;50.364;7.550;2023-10-19T01:25:54;13.07;;;11.87;;
54807;SDS011;40708;50.364;7.550;2023-10-19T01:28:24;13.60;;;12.20;;
54807;SDS011;40708;50.364;7.550;2023-10-19T01:31:03;11.87;;;10.67;;
54807;SDS011;40708;50.364;7.550;2023-10-19T01:33:31;12.60;;;11.40;;
54807;SDS011;40708;50.364;7.550;2023-10-19T01:35:57;12.87;;;11.67;;
54807;SDS011;40708;50.364;7.550;2023-10-19T01:38:39;14.83;;;13.33;;
54807;SDS011;40708;50.364;7.550;2023-10-19T01:41:06;14.03;;;12.63;;
54807;SDS011;40708;50.364;7.550;2023-10-19T01:43:51;12.23;;;10.93;;
54807;SDS011;40708;50.364;7.550;2023-10-19T01:46:22;13.10;;;11.80;;
54807;SDS011;40708;50.364;7.550;2023-10-19T01:48:56;12.93;;;11.73;;
54807;SDS011;40708;50.364;7.550;2023-10-19T01:51:22;13.63;;;12.33;;
54807;SDS011;40708;50.364;7.550;2023-10-19T01:53:50;12.93;;;11.57;;
54807;SDS011;40708;50.364;7.550;2023-10-19T01:56:16;16.07;;;13.37;;
54807;SDS011;40708;50.364;7.550;2023-10-19T01:58:43;14.03;;;12.60;;
54807;SDS011;40708;50.364;7.550;2023-10-19T02:01:12;14.67;;;13.17;;
54807;SDS011;40708;50.364;7.550;2023-10-19T02:03:39;16.13;;;14.07;;
54807;SDS011;40708;50.364;7.550;2023-10-19T02:06:08;17.87;;;14.97;;
54807;SDS011;40708;50.364;7.550;2023-10-19T02:09:06;15.00;;;13.50;;
54807;SDS011;40708;50.364;7.550;2023-10-19T02:11:39;16.07;;;12.90;;
54807;SDS011;40708;50.364;7.550;2023-10-19T02:14:07;14.47;;;12.37;;
54807;SDS011;40708;50.364;7.550;2023-10-19T02:16:40;13.47;;;11.63;;
54807;SDS011;40708;50.364;7.550;2023-10-19T02:19:09;15.03;;;13.43;;
54807;SDS011;40708;50.364;7.550;2023-10-19T02:21:34;14.03;;;12.73;;
54807;SDS011;40708;50.364;7.550;2023-10-19T02:24:05;15.33;;;13.83;;
54807;SDS011;40708;50.364;7.550;2023-10-19T02:26:34;17.53;;;15.23;;
54807;SDS011;40708;50.364;7.550;2023-10-19T02:29:00;14.90;;;13.40;;
54807;SDS011;40708;50.364;7.550;2023-10-19T02:31:28;15.87;;;14.17;;
54807;SDS011;40708;50.364;7.550;2023-10-19T02:33:54;18.33;;;16.37;;
54807;SDS011;40708;50.364;7.550;2023-10-19T02:36:29;17.90;;;16.07;;
54807;SDS011;40708;50.364;7.550;2023-10-19T02:38:59;15.97;;;14.27;;
54807;SDS011;40708;50.364;7.550;2023-10-19T02:41:36;18.47;;;16.47;;
54807;SDS011;40708;50.364;7.550;2023-10-19T02:44:03;15.40;;;13.90;;
54807;SDS011;40708;50.364;7.550;2023-10-19T02:46:29;14.83;;;13.40;;
54807;SDS011;40708;50.364;7.550;2023-10-19T02:48:54;17.27;;;15.60;;
54807;SDS011;40708;50.364;7.550;2023-10-19T02:51:20;16.60;;;14.90;;
54807;SDS011;40708;50.364;7.550;2023-10-19T02:53:45;15.10;;;13.57;;
54807;SDS011;40708;50.364;7.550;2023-10-19T02:56:14;15.67;;;12.77;;
54807;SDS011;40708;50.364;7.550;2023-10-19T02:58:44;15.03;;;13.47;;
54807;SDS011;40708;50.364;7.550;2023-10-19T03:01:17;15.90;;;14.27;;
54807;SDS011;40708;50.364;7.550;2023-10-19T03:03:53;16.80;;;15.03;;
54807;SDS011;40708;50.364;7.550;2023-10-19T03:06:23;16.50;;;14.83;;
54807;SDS011;40708;50.364;7.550;2023-10-19T03:08:49;16.37;;;14.33;;
54807;SDS011;40708;50.364;7.550;2023-10-19T03:11:23;18.17;;;16.30;;
54807;SDS011;40708;50.364;7.550;2023-10-19T03:13:49;17.87;;;16.17;;
54807;SDS011;40708;50.364;7.550;2023-10-19T03:16:15;16.67;;;14.80;;
54807;SDS011;40708;50.364;7.550;2023-10-19T03:18:40;16.10;;;14.43;;
54807;SDS011;40708;50.364;7.550;2023-10-19T03:21:06;15.57;;;13.73;;
54807;SDS011;40708;50.364;7.550;2023-10-19T03:23:32;14.97;;;13.10;;
54807;SDS011;40708;50.364;7.550;2023-10-19T03:25:59;17.60;;;15.80;;
54807;SDS011;40708;50.364;7.550;2023-10-19T03:29:03;15.37;;;13.60;;
54807;SDS011;40708;50.364;7.550;2023-10-19T03:31:37;16.23;;;14.33;;
54807;SDS011;40708;50.364;7.550;2023-10-19T03:34:08;14.57;;;13.17;;
54807;SDS011;40708;50.364;7.550;2023-10-19T03:36:37;14.23;;;12.73;;
54807;SDS011;40708;50.364;7.550;2023-10-19T03:39:03;14.10;;;12.70;;
54807;SDS011;40708;50.364;7.550;2023-10-19T03:41:36;12.97;;;11.67;;
54807;SDS011;40708;50.364;7.550;2023-10-19T03:44:04;14.43;;;12.93;;
54807;SDS011;40708;50.364;7.550;2023-10-19T03:46:29;13.53;;;11.97;;
54807;SDS011;40708;50.364;7.550;2023-10-19T03:48:56;14.10;;;12.33;;
54807;SDS011;40708;50.364;7.550;2023-10-19T03:51:35;13.07;;;11.87;;
54807;SDS011;40708;50.364;7.550;2023-10-19T03:54:27;13.33;;;11.93;;
54807;SDS011;40708;50.364;7.550;2023-10-19T03:56:53;12.37;;;11.13;;
54807;SDS011;40708;50.364;7.550;2023-10-19T03:59:21;12.97;;;11.67;;
54807;SDS011;40708;50.364;7.550;2023-10-19T04:01:47;14.07;;;12.23;;
54807;SDS011;40708;50.364;7.550;2023-10-19T04:04:13;13.23;;;10.50;;
54807;SDS011;40708;50.364;7.550;2023-10-19T04:06:41;13.07;;;10.77;;
54807;SDS011;40708;50.364;7.550;2023-10-19T04:09:12;14.47;;;11.23;;
54807;SDS011;40708;50.364;7.550;2023-10-19T04:11:40;12.10;;;10.90;;
54807;SDS011;40708;50.364;7.550;2023-10-19T04:14:15;11.80;;;10.60;;
54807;SDS011;40708;50.364;7.550;2023-10-19T04:16:41;12.60;;;10.80;;
54807;SDS011;40708;50.364;7.550;2023-10-19T04:19:08;12.33;;;11.03;;
54807;SDS011;40708;50.364;7.550;2023-10-19T04:21:35;12.53;;;11.27;;
54807;SDS011;40708;50.364;7.550;2023-10-19T04:24:04;12.93;;;10.33;;
54807;SDS011;40708;50.364;7.550;2023-10-19T04:26:32;11.57;;;10.47;;
54807;SDS011;40708;50.364;7.550;2023-10-19T04:29:02;10.97;;;9.63;;
54807;SDS011;40708;50.364;7.550;2023-10-19T04:31:34;11.47;;;10.30;;
54807;SDS011;40708;50.364;7.550;2023-10-19T04:34:02;11.37;;;10.23;;
54807;SDS011;40708;50.364;7.550;2023-10-19T04:36:32;11.77;;;10.57;;
54807;SDS011;40708;50.364;7.550;2023-10-19T04:39:00;12.20;;;10.97;;
54807;SDS011;40708;50.364;7.550;2023-10-19T04:41:26;11.63;;;10.47;;
54807;SDS011;40708;50.364;7.550;2023-10-19T04:43:54;14.07;;;10.47;;
54807;SDS011;40708;50.364;7.550;2023-10-19T04:46:23;11.00;;;9.90;;
54807;SDS011;40708;50.364;7.550;2023-10-19T04:48:48;11.23;;;10.03;;
54807;SDS011;40708;50.364;7.550;2023-10-19T04:51:14;12.23;;;11.00;;
54807;SDS011;40708;50.364;7.550;2023-10-19T04:53:40;12.67;;;11.47;;
54807;SDS011;40708;50.364;7.550;2023-10-19T04:56:05;12.80;;;11.40;;
54807;SDS011;40708;50.364;7.550;2023-10-19T04:58:33;13.20;;;11.90;;
54807;SDS011;40708;50.364;7.550;2023-10-19T05:00:59;14.47;;;12.07;;
54807;SDS011;40708;50.364;7.550;2023-10-19T05:03:25;14.90;;;13.30;;
54807;SDS011;40708;50.364;7.550;2023-10-19T05:05:51;13.97;;;12.47;;
54807;SDS011;40708;50.364;7.550;2023-10-19T05:08:16;14.27;;;12.77;;
54807;SDS011;40708;50.364;7.550;2023-10-19T05:10:41;16.00;;;12.83;;
54807;SDS011;40708;50.364;7.550;2023-10-19T05:13:07;13.87;;;12.47;;
54807;SDS011;40708;50.364;7.550;2023-10-19T05:15:32;13.03;;;11.83;;
54807;SDS011;40708;50.364;7.550;2023-10-19T05:17:59;15.20;;;12.67;;
54807;SDS011;40708;50.364;7.550;2023-10-19T05:20:24;14.60;;;12.70;;
54807;SDS011;40708;50.364;7.550;2023-10-19T05:22:50;14.50;;;12.53;;
54807;SDS011;40708;50.364;7.550;2023-10-19T05:25:16;15.20;;;13.53;;
54807;SDS011;40708;50.364;7.550;2023-10-19T05:27:41;18.13;;;13.63;;
54807;SDS011;40708;50.364;7.550;2023-10-19T05:30:07;15.20;;;13.60;;
54807;SDS011;40708;50.364;7.550;2023-10-19T05:32:36;15.10;;;12.70;;
54807;SDS011;40708;50.364;7.550;2023-10-19T05:35:01;19.30;;;14.60;;
54807;SDS011;40708;50.364;7.550;2023-10-19T05:37:29;17.07;;;14.70;;
54807;SDS011;40708;50.364;7.550;2023-10-19T05:39:54;15.43;;;13.80;;
54807;SDS011;40708;50.364;7.550;2023-10-19T05:42:20;14.70;;;13.20;;
54807;SDS011;40708;50.364;7.550;2023-10-19T05:44:47;16.93;;;15.03;;
54807;SDS011;40708;50.364;7.550;2023-10-19T05:47:12;20.00;;;15.90;;
54807;SDS011;40708;50.364;7.550;2023-10-19T05:49:37;17.37;;;15.57;;
54807;SDS011;40708;50.364;7.550;2023-10-19T05:52:02;18.40;;;16.30;;
54807;SDS011;40708;50.364;7.550;2023-10-19T05:54:28;19.50;;;17.40;;
54807;SDS011;40708;50.364;7.550;2023-10-19T05:56:53;19.27;;;16.50;;
54807;SDS011;40708;50.364;7.550;2023-10-19T05:59:19;18.07;;;15.57;;
54807;SDS011;40708;50.364;7.550;2023-10-19T06:01:44;19.57;;;16.23;;
54807;SDS011;40708;50.364;7.550;2023-10-19T06:04:12;17.30;;;15.03;;
54807;SDS011;40708;50.364;7.550;2023-10-19T06:06:37;16.77;;;14.80;;
54807;SDS011;40708;50.364;7.550;2023-10-19T06:09:04;15.67;;;14.03;;
54807;SDS011;40708;50.364;7.550;2023-10-19T06:11:33;15.47;;;13.87;;
54807;SDS011;40708;50.364;7.550;2023-10-19T06:13:59;14.57;;;13.13;;
54807;SDS011;40708;50.364;7.550;2023-10-19T06:16:24;17.07;;;15.27;;
54807;SDS011;40708;50.364;7.550;2023-10-19T06:18:50;15.23;;;13.63;;
54807;SDS011;40708;50.364;7.550;2023-10-19T06:21:17;16.70;;;14.03;;
54807;SDS011;40708;50.364;7.550;2023-10-19T06:23:44;16.60;;;14.90;;
54807;SDS011;40708;50.364;7.550;2023-10-19T06:26:10;14.20;;;12.80;;
54807;SDS011;40708;50.364;7.550;2023-10-19T06:28:36;13.67;;;12.27;;
54807;SDS011;40708;50.364;7.550;2023-10-19T06:31:03;13.73;;;11.73;;
54807;SDS011;40708;50.364;7.550;2023-10-19T06:33:29;13.50;;;11.67;;
54807;SDS011;40708;50.364;7.550;2023-10-19T06:35:58;14.70;;;12.30;;
54807;SDS011;40708;50.364;7.550;2023-10-19T06:38:24;12.93;;;11.57;;
54807;SDS011;40708;50.364;7.550;2023-10-19T06:40:50;14.07;;;12.57;;
54807;SDS011;40708;50.364;7.550;2023-10-19T06:43:16;11.97;;;10.73;;
54807;SDS011;40708;50.364;7.550;2023-10-19T06:45:41;11.60;;;10.50;;
54807;SDS011;40708;50.364;7.550;2023-10-19T06:48:09;11.97;;;10.50;;
54807;SDS011;40708;50.364;7.550;2023-10-19T06:50:36;10.00;;;9.00;;
54807;SDS011;40708;50.364;7.550;2023-10-19T06:53:02;14.97;;;10.63;;
54807;SDS011;40708;50.364;7.550;2023-10-19T06:55:30;11.50;;;9.37;;
54807;SDS011;40708;50.364;7.550;2023-10-19T06:57:55;11.60;;;8.93;;
54807;SDS011;40708;50.364;7.550;2023-10-19T07:00:22;10.63;;;8.00;;
54807;SDS011;40708;50.364;7.550;2023-10-19T07:02:52;9.53;;;7.93;;
54807;SDS011;40708;50.364;7.550;2023-10-19T07:05:20;8.70;;;7.73;;
54807;SDS011;40708;50.364;7.550;2023-10-19T07:07:47;11.47;;;8.27;;
54807;SDS011;40708;50.364;7.550;2023-10-19T07:10:14;10.03;;;7.60;;
54807;SDS011;40708;50.364;7.550;2023-10-19T07:12:44;8.67;;;7.73;;
54807;SDS011;40708;50.364;7.550;2023-10-19T07:15:11;7.97;;;7.17;;
54807;SDS011;40708;50.364;7.550;2023-10-19T07:17:40;8.30;;;7.17;;
54807;SDS011;40708;50.364;7.550;2023-10-19T07:20:07;7.60;;;6.80;;
54807;SDS011;40708;50.364;7.550;2023-10-19T07:22:34;10.03;;;7.30;;
54807;SDS011;40708;50.364;7.550;2023-10-19T07:25:04;8.50;;;6.87;;
54807;SDS011;40708;50.364;7.550;2023-10-19T07:27:31;7.43;;;6.60;;
54807;SDS011;40708;50.364;7.550;2023-10-19T07:29:58;6.90;;;6.00;;
54807;SDS011;40708;50.364;7.550;2023-10-19T07:32:24;9.83;;;6.43;;
54807;SDS011;40708;50.364;7.550;2023-10-19T07:34:49;6.63;;;6.00;;
54807;SDS011;40708;50.364;7.550;2023-10-19T07:37:14;7.90;;;6.50;;
54807;SDS011;40708;50.364;7.550;2023-10-19T07:39:46;9.07;;;6.30;;
54807;SDS011;40708;50.364;7.550;2023-10-19T07:42:12;7.27;;;6.43;;
54807;SDS011;40708;50.364;7.550;2023-10-19T07:44:37;10.30;;;6.73;;
54807;SDS011;40708;50.364;7.550;2023-10-19T07:47:02;9.97;;;6.60;;
54807;SDS011;40708;50.364;7.550;2023-10-19T07:49:28;6.50;;;5.87;;
54807;SDS011;40708;50.364;7.550;2023-10-19T07:51:53;8.63;;;7.10;;
54807;SDS011;40708;50.364;7.550;2023-10-19T07:54:18;9.50;;;7.40;;
54807;SDS011;40708;50.364;7.550;2023-10-19T07:56:45;9.13;;;6.23;;
54807;SDS011;40708;50.364;7.550;2023-10-19T07:59:11;6.80;;;5.80;;
54807;SDS011;40708;50.364;7.550;2023-10-19T08:01:37;6.73;;;6.13;;
54807;SDS011;40708;50.364;7.550;2023-10-19T08:04:03;6.07;;;5.17;;
54807;SDS011;40708;50.364;7.550;2023-10-19T08:06:28;8.87;;;6.27;;
54807;SDS011;40708;50.364;7.550;2023-10-19T08:08:53;9.50;;;6.43;;
54807;SDS011;40708;50.364;7.550;2023-10-19T08:11:20;7.03;;;5.60;;
54807;SDS011;40708;50.364;7.550;2023-10-19T08:13:46;7.27;;;5.40;;
54807;SDS011;40708;50.364;7.550;2023-10-19T08:16:12;6.50;;;5.80;;
54807;SDS011;40708;50.364;7.550;2023-10-19T08:18:37;6.33;;;5.17;;
54807;SDS011;40708;50.364;7.550;2023-10-19T08:21:03;7.55;;;5.60;;
54807;SDS011;40708;50.364;7.550;2023-10-19T08:23:28;6.45;;;5.75;;
54807;SDS011;40708;50.364;7.550;2023-10-19T08:25:56;6.07;;;5.15;;
54807;SDS011;40708;50.364;7.550;2023-10-19T08:28:22;6.55;;;4.80;;
54807;SDS011;40708;50.364;7.550;2023-10-19T08:30:48;8.00;;;5.07;;
54807;SDS011;40708;50.364;7.550;2023-10-19T08:33:25;7.40;;;5.43;;
54807;SDS011;40708;50.364;7.550;2023-10-19T08:35:52;9.50;;;5.88;;
54807;SDS011;40708;50.364;7.550;2023-10-19T08:38:18;13.68;;;6.13;;
54807;SDS011;40708;50.364;7.550;2023-10-19T08:40:44;8.77;;;5.75;;
54807;SDS011;40708;50.364;7.550;2023-10-19T08:43:10;6.97;;;5.13;;
54807;SDS011;40708;50.364;7.550;2023-10-19T08:45:38;6.75;;;5.65;;
54807;SDS011;40708;50.364;7.550;2023-10-19T08:48:04;6.75;;;5.00;;
54807;SDS011;40708;50.364;7.550;2023-10-19T08:50:33;6.68;;;5.75;;
54807;SDS011;40708;50.364;7.550;2023-10-19T08:53:00;4.85;;;4.38;;
54807;SDS011;40708;50.364;7.550;2023-10-19T08:55:30;6.22;;;4.13;;
54807;SDS011;40708;50.364;7.550;2023-10-19T08:57:57;7.43;;;4.97;;
54807;SDS011;40708;50.364;7.550;2023-10-19T09:00:25;7.05;;;4.78;;
54807;SDS011;40708;50.364;7.550;2023-10-19T09:02:52;6.13;;;4.13;;
54807;SDS011;40708;50.364;7.550;2023-10-19T09:05:18;8.23;;;5.32;;
54807;SDS011;40708;50.364;7.550;2023-10-19T09:07:48;5.95;;;4.50;;
54807;SDS011;40708;50.364;7.550;2023-10-19T09:10:23;7.60;;;5.38;;
54807;SDS011;40708;50.364;7.550;2023-10-19T09:13:07;8.43;;;5.50;;
54807;SDS011;40708;50.364;7.550;2023-10-19T09:15:37;6.18;;;5.05;;
54807;SDS011;40708;50.364;7.550;2023-10-19T09:18:20;6.57;;;5.13;;
54807;SDS011;40708;50.364;7.550;2023-10-19T09:20:50;6.20;;;5.25;;
54807;SDS011;40708;50.364;7.550;2023-10-19T09:23:21;4.68;;;4.25;;
54807;SDS011;40708;50.364;7.550;2023-10-19T09:25:51;6.75;;;4.47;;
54807;SDS011;40708;50.364;7.550;2023-10-19T09:28:20;4.78;;;3.42;;
54807;SDS011;40708;50.364;7.550;2023-10-19T09:30:46;7.60;;;3.80;;
54807;SDS011;40708;50.364;7.550;2023-10-19T09:33:13;6.50;;;3.97;;
54807;SDS011;40708;50.364;7.550;2023-10-19T09:35:42;4.90;;;4.03;;
54807;SDS011;40708;50.364;7.550;2023-10-19T09:38:10;6.25;;;3.70;;
54807;SDS011;40708;50.364;7.550;2023-10-19T09:40:36;3.97;;;3.58;;
54807;SDS011;40708;50.364;7.550;2023-10-19T09:43:04;7.65;;;3.90;;
54807;SDS011;40708;50.364;7.550;2023-10-19T09:45:33;7.30;;;3.92;;
54807;SDS011;40708;50.364;7.550;2023-10-19T09:48:05;5.20;;;3.50;;
54807;SDS011;40708;50.364;7.550;2023-10-19T09:50:32;3.22;;;2.92;;
54807;SDS011;40708;50.364;7.550;2023-10-19T09:52:57;3.75;;;3.35;;
54807;SDS011;40708;50.364;7.550;2023-10-19T09:55:32;7.38;;;3.53;;
54807;SDS011;40708;50.364;7.550;2023-10-19T09:58:19;6.47;;;3.35;;
54807;SDS011;40708;50.364;7.550;2023-10-19T10:00:48;5.97;;;3.28;;
54807;SDS011;40708;50.364;7.550;2023-10-19T10:06:07;6.78;;;3.53;;
54807;SDS011;40708;50.364;7.550;2023-10-19T10:08:33;8.10;;;3.75;;
54807;SDS011;40708;50.364;7.550;2023-10-19T10:11:23;4.97;;;3.35;;
54807;SDS011;40708;50.364;7.550;2023-10-19T10:13:57;7.13;;;3.72;;
54807;SDS011;40708;50.364;7.550;2023-10-19T10:16:24;4.88;;;3.80;;
54807;SDS011;40708;50.364;7.550;2023-10-19T10:18:51;4.82;;;3.30;;
54807;SDS011;40708;50.364;7.550;2023-10-19T10:21:21;6.07;;;3.40;;
54807;SDS011;40708;50.364;7.550;2023-10-19T10:23:49;4.57;;;3.58;;
54807;SDS011;40708;50.364;7.550;2023-10-19T10:26:17;5.90;;;3.15;;
54807;SDS011;40708;50.364;7.550;2023-10-19T10:29:27;6.07;;;3.78;;
54807;SDS011;40708;50.364;7.550;2023-10-19T10:31:45;6.22;;;3.35;;
54807;SDS011;40708;50.364;7.550;2023-10-19T10:37:08;4.75;;;3.60;;
54807;SDS011;40708;50.364;7.550;2023-10-19T10:39:36;4.50;;;3.60;;
54807;SDS011;40708;50.364;7.550;2023-10-19T10:42:05;5.25;;;3.80;;
54807;SDS011;40708;50.364;7.550;2023-10-19T10:44:40;5.82;;;4.72;;
54807;SDS011;40708;50.364;7.550;2023-10-19T10:47:09;5.32;;;4.43;;
54807;SDS011;40708;50.364;7.550;2023-10-19T10:49:48;8.75;;;5.32;;
54807;SDS011;40708;50.364;7.550;2023-10-19T10:52:25;6.88;;;4.30;;
54807;SDS011;40708;50.364;7.550;2023-10-19T10:54:51;7.25;;;4.25;;
54807;SDS011;40708;50.364;7.550;2023-10-19T10:57:16;6.15;;;3.70;;
54807;SDS011;40708;50.364;7.550;2023-10-19T10:59:42;6.75;;;3.60;;
54807;SDS011;40708;50.364;7.550;2023-10-19T11:02:17;5.05;;;3.63;;
54807;SDS011;40708;50.364;7.550;2023-10-19T11:04:44;5.30;;;3.50;;
54807;SDS011;40708;50.364;7.550;2023-10-19T11:07:18;5.95;;;3.90;;
54807;SDS011;40708;50.364;7.550;2023-10-19T11:09:45;6.70;;;3.95;;
54807;SDS011;40708;50.364;7.550;2023-10-19T11:12:12;6.75;;;3.92;;
54807;SDS011;40708;50.364;7.550;2023-10-19T11:14:50;5.15;;;3.78;;
54807;SDS011;40708;50.364;7.550;2023-10-19T11:17:19;6.55;;;3.78;;
54807;SDS011;40708;50.364;7.550;2023-10-19T11:19:48;6.95;;;4.43;;
54807;SDS011;40708;50.364;7.550;2023-10-19T11:22:14;8.38;;;4.40;;
54807;SDS011;40708;50.364;7.550;2023-10-19T11:24:39;7.57;;;4.72;;
54807;SDS011;40708;50.364;7.550;2023-10-19T11:27:05;5.60;;;3.88;;
54807;SDS011;40708;50.364;7.550;2023-10-19T11:29:32;5.10;;;4.18;;
54807;SDS011;40708;50.364;7.550;2023-10-19T11:31:59;5.68;;;4.28;;
54807;SDS011;40708;50.364;7.550;2023-10-19T11:34:25;7.43;;;3.97;;
54807;SDS011;40708;50.364;7.550;2023-10-19T11:36:54;4.75;;;4.25;;
54807;SDS011;40708;50.364;7.550;2023-10-19T11:39:22;5.57;;;4.38;;
54807;SDS011;40708;50.364;7.550;2023-10-19T11:41:48;7.18;;;3.90;;
54807;SDS011;40708;50.364;7.550;2023-10-19T11:44:14;5.50;;;3.90;;
54807;SDS011;40708;50.364;7.550;2023-10-19T11:46:39;5.15;;;4.57;;
54807;SDS011;40708;50.364;7.550;2023-10-19T11:49:05;5.70;;;4.30;;
54807;SDS011;40708;50.364;7.550;2023-10-19T11:51:30;7.00;;;4.60;;
54807;SDS011;40708;50.364;7.550;2023-10-19T11:53:56;4.65;;;3.90;;
54807;SDS011;40708;50.364;7.550;2023-10-19T11:56:21;6.53;;;4.60;;
54807;SDS011;40708;50.364;7.550;2023-10-19T11:58:47;4.88;;;4.32;;
54807;SDS011;40708;50.364;7.550;2023-10-19T12:01:12;5.20;;;4.28;;
54807;SDS011;40708;50.364;7.550;2023-10-19T12:03:38;7.13;;;4.72;;
54807;SDS011;40708;50.364;7.550;2023-10-19T12:06:05;8.55;;;4.90;;
54807;SDS011;40708;50.364;7.550;2023-10-19T12:08:32;6.20;;;4.85;;
54807;SDS011;40708;50.364;7.550;2023-10-19T12:10:59;6.60;;;4.57;;
54807;SDS011;40708;50.364;7.550;2023-10-19T12:13:26;6.15;;;4.50;;
54807;SDS011;40708;50.364;7.550;2023-10-19T12:15:53;5.30;;;4.63;;
54807;SDS011;40708;50.364;7.550;2023-10-19T12:18:20;7.15;;;4.57;;
54807;SDS011;40708;50.364;7.550;2023-10-19T12:20:50;7.35;;;5.50;;
54807;SDS011;40708;50.364;7.550;2023-10-19T12:23:15;4.90;;;4.15;;
54807;SDS011;40708;50.364;7.550;2023-10-19T12:25:41;8.20;;;4.75;;
54807;SDS011;40708;50.364;7.550;2023-10-19T12:28:07;5.20;;;4.50;;
54807;SDS011;40708;50.364;7.550;2023-10-19T12:30:37;5.60;;;4.93;;
54807;SDS011;40708;50.364;7.550;2023-10-19T12:33:04;5.03;;;4.25;;
54807;SDS011;40708;50.364;7.550;2023-10-19T12:35:39;6.28;;;4.90;;
54807;SDS011;40708;50.364;7.550;2023-10-19T12:38:24;5.70;;;4.78;;
54807;SDS011;40708;50.364;7.550;2023-10-19T12:40:50;5.43;;;4.90;;
54807;SDS011;40708;50.364;7.550;2023-10-19T12:43:16;7.10;;;5.00;;
54807;SDS011;40708;50.364;7.550;2023-10-19T12:45:47;5.50;;;4.97;;
54807;SDS011;40708;50.364;7.550;2023-10-19T12:48:18;6.85;;;4.80;;
54807;SDS011;40708;50.364;7.550;2023-10-19T12:50:45;6.53;;;5.47;;
54807;SDS011;40708;50.364;7.550;2023-10-19T12:53:12;6.25;;;5.47;;
54807;SDS011;40708;50.364;7.550;2023-10-19T12:55:38;6.70;;;5.50;;
54807;SDS011;40708;50.364;7.550;2023-10-19T12:58:04;6.07;;;4.88;;
54807;SDS011;40708;50.364;7.550;2023-10-19T13:00:34;6.72;;;4.63;;
54807;SDS011;40708;50.364;7.550;2023-10-19T13:03:09;6.30;;;5.13;;
54807;SDS011;40708;50.364;7.550;2023-10-19T13:05:38;5.65;;;4.72;;
54807;SDS011;40708;50.364;7.550;2023-10-19T13:08:05;6.68;;;5.32;;
54807;SDS011;40708;50.364;7.550;2023-10-19T13:10:31;5.07;;;4.50;;
54807;SDS011;40708;50.364;7.550;2023-10-19T13:13:01;6.38;;;5.07;;
54807;SDS011;40708;50.364;7.550;2023-10-19T13:15:32;4.57;;;4.18;;
54807;SDS011;40708;50.364;7.550;2023-10-19T13:18:00;7.10;;;4.38;;
54807;SDS011;40708;50.364;7.550;2023-10-19T13:20:30;8.50;;;4.60;;
54807;SDS011;40708;50.364;7.550;2023-10-19T13:23:02;6.55;;;4.60;;
54807;SDS011;40708;50.364;7.550;2023-10-19T13:25:35;5.05;;;4.30;;
54807;SDS011;40708;50.364;7.550;2023-10-19T13:28:21;5.70;;;4.68;;
54807;SDS011;40708;50.364;7.550;2023-10-19T13:30:47;5.85;;;4.40;;
54807;SDS011;40708;50.364;7.550;2023-10-19T13:33:14;7.80;;;4.88;;
54807;SDS011;40708;50.364;7.550;2023-10-19T13:35:41;5.53;;;5.03;;
54807;SDS011;40708;50.364;7.550;2023-10-19T13:38:08;8.90;;;5.57;;
54807;SDS011;40708;50.364;7.550;2023-10-19T13:40:34;6.95;;;4.65;;
54807;SDS011;40708;50.364;7.550;2023-10-19T13:43:01;6.27;;;4.13;;
54807;SDS011;40708;50.364;7.550;2023-10-19T13:45:28;5.88;;;4.80;;
54807;SDS011;40708;50.364;7.550;2023-10-19T13:47:55;6.20;;;4.37;;
54807;SDS011;40708;50.364;7.550;2023-10-19T13:50:21;5.55;;;4.50;;
54807;SDS011;40708;50.364;7.550;2023-10-19T13:52:48;6.60;;;4.82;;
54807;SDS011;40708;50.364;7.550;2023-10-19T13:55:15;6.70;;;4.80;;
54807;SDS011;40708;50.364;7.550;2023-10-19T13:57:43;5.43;;;4.67;;
54807;SDS011;40708;50.364;7.550;2023-10-19T14:00:09;5.73;;;5.23;;
54807;SDS011;40708;50.364;7.550;2023-10-19T14:02:35;6.37;;;5.17;;
54807;SDS011;40708;50.364;7.550;2023-10-19T14:05:01;8.47;;;6.10;;
54807;SDS011;40708;50.364;7.550;2023-10-19T14:07:27;7.27;;;5.60;;
54807;SDS011;40708;50.364;7.550;2023-10-19T14:09:52;7.00;;;5.77;;
54807;SDS011;40708;50.364;7.550;2023-10-19T14:12:17;9.53;;;6.33;;
54807;SDS011;40708;50.364;7.550;2023-10-19T14:14:43;6.33;;;5.73;;
54807;SDS011;40708;50.364;7.550;2023-10-19T14:17:08;11.17;;;7.13;;
54807;SDS011;40708;50.364;7.550;2023-10-19T14:19:34;8.47;;;6.60;;
54807;SDS011;40708;50.364;7.550;2023-10-19T14:21:59;8.73;;;7.50;;
54807;SDS011;40708;50.364;7.550;2023-10-19T14:24:24;9.40;;;7.20;;
54807;SDS011;40708;50.364;7.550;2023-10-19T14:26:50;8.07;;;7.27;;
54807;SDS011;40708;50.364;7.550;2023-10-19T14:29:16;11.67;;;9.40;;
54807;SDS011;40708;50.364;7.550;2023-10-19T14:31:41;9.10;;;8.30;;
54807;SDS011;40708;50.364;7.550;2023-10-19T14:34:06;12.40;;;8.87;;
54807;SDS011;40708;50.364;7.550;2023-10-19T14:36:33;8.93;;;8.00;;
54807;SDS011;40708;50.364;7.550;2023-10-19T14:38:58;10.33;;;7.93;;
54807;SDS011;40708;50.364;7.550;2023-10-19T14:41:23;9.63;;;8.17;;
54807;SDS011;40708;50.364;7.550;2023-10-19T14:43:49;11.20;;;8.63;;
54807;SDS011;40708;50.364;7.550;2023-10-19T14:46:14;10.20;;;9.20;;
54807;SDS011;40708;50.364;7.550;2023-10-19T14:48:41;12.10;;;10.80;;